createdAt,value
2023-03-05T00:01:51.531Z,99821.56
2023-03-05T00:04:53.414Z,99821.59
2023-03-05T00:07:55.168Z,99834.56
2023-03-05T00:11:02.273Z,99851.88
2023-03-05T00:14:04.870Z,99824.16
2023-03-05T00:17:07.159Z,99831.94
2023-03-05T00:20:09.519Z,99862.22
2023-03-05T00:23:11.310Z,99850.97
2023-03-05T00:26:13.216Z,99859.63
2023-03-05T00:29:24.429Z,99832.78
2023-03-05T00:32:26.429Z,99865.69
2023-03-05T00:35:28.686Z,99865.69
2023-03-05T00:38:30.525Z,99783.44
2023-03-05T00:41:32.994Z,99857.03
2023-03-05T00:44:34.806Z,99865.69
2023-03-05T00:47:36.911Z,99834.53
2023-03-05T00:50:39.338Z,99838.03
2023-03-05T00:53:41.048Z,99865.72
2023-03-05T00:56:43.129Z,99859.66
2023-03-05T00:59:45.039Z,99827.63
2023-03-05T01:02:46.837Z,99825.03
2023-03-05T01:05:48.568Z,99868.31
2023-03-05T01:08:50.345Z,99867.44
2023-03-05T01:11:52.875Z,99857.88
2023-03-05T01:14:54.778Z,99853.56
2023-03-05T01:17:56.645Z,99842.31
2023-03-05T01:20:58.493Z,99820.69
2023-03-05T01:24:00.281Z,99852.69
2023-03-05T01:27:02.095Z,99818.94
2023-03-05T01:30:05.044Z,99851.88
2023-03-05T01:33:06.944Z,99873.53
2023-03-05T01:36:13.439Z,99876.13
2023-03-05T01:39:15.529Z,99872.66
2023-03-05T01:42:19.482Z,99857.06
2023-03-05T01:45:21.360Z,99857.97
2023-03-05T01:48:23.306Z,99880.47
2023-03-05T01:51:29.188Z,99870.06
2023-03-05T01:54:38.420Z,99824.16
2023-03-05T01:57:48.647Z,99875.25
2023-03-05T02:00:53.769Z,99874.38
2023-03-05T02:03:55.895Z,99842.34
2023-03-05T02:06:59.135Z,99885.66
2023-03-05T02:10:01.315Z,99869.19
2023-03-05T02:13:06.986Z,99869.22
2023-03-05T02:16:08.912Z,99863.13
2023-03-05T02:19:12.490Z,99866.59
2023-03-05T02:22:15.545Z,99877.88
2023-03-05T02:25:23.875Z,99875.25
2023-03-05T02:28:43.365Z,99873.50
2023-03-05T02:31:45.144Z,99869.22
2023-03-05T02:34:47.628Z,99841.50
2023-03-05T02:37:50.926Z,99859.66
2023-03-05T02:40:53.002Z,99860.56
2023-03-05T02:43:54.896Z,99877.00
2023-03-05T02:46:56.832Z,99836.31
2023-03-05T02:49:59.608Z,99858.81
2023-03-05T02:53:01.564Z,99869.19
2023-03-05T02:56:04.653Z,99865.72
2023-03-05T02:59:09.299Z,99866.56
2023-03-05T03:02:10.977Z,99877.84
2023-03-05T03:05:12.840Z,99864.81
2023-03-05T03:08:15.178Z,99863.97
2023-03-05T03:11:17.732Z,99820.69
2023-03-05T03:14:20.057Z,99857.88
2023-03-05T03:17:21.835Z,99865.69
2023-03-05T03:20:23.774Z,99856.16
2023-03-05T03:23:25.709Z,99841.44
2023-03-05T03:26:27.631Z,99850.13
2023-03-05T03:29:29.473Z,99813.78
2023-03-05T03:32:32.309Z,99841.44
2023-03-05T03:35:34.143Z,99839.72
2023-03-05T03:38:35.933Z,99836.22
2023-03-05T03:41:41.941Z,99860.47
2023-03-05T03:44:43.807Z,99858.72
2023-03-05T03:47:45.560Z,99814.59
2023-03-05T03:50:47.290Z,99823.22
2023-03-05T03:53:48.994Z,99837.94
2023-03-05T03:56:50.837Z,99844.84
2023-03-05T03:59:52.741Z,99842.28
2023-03-05T04:02:54.674Z,99822.38
2023-03-05T04:05:56.503Z,99826.69
2023-03-05T04:08:58.273Z,99844.84
2023-03-05T04:11:59.911Z,99820.63
2023-03-05T04:15:01.691Z,99844.88
2023-03-05T04:18:03.691Z,99843.13
2023-03-05T04:21:05.766Z,99824.13
2023-03-05T04:24:08.449Z,99848.31
2023-03-05T04:27:10.854Z,99858.72
2023-03-05T04:30:14.870Z,99852.66
2023-03-05T04:33:17.040Z,99846.63
2023-03-05T04:36:19.064Z,99832.78
2023-03-05T04:39:23.336Z,99796.41
2023-03-05T04:42:25.141Z,99848.31
2023-03-05T04:45:27.010Z,99836.22
2023-03-05T04:48:28.754Z,99813.72
2023-03-05T04:51:30.693Z,99847.47
2023-03-05T04:54:32.642Z,99849.22
2023-03-05T04:57:35.514Z,99846.59
2023-03-05T05:00:37.340Z,99849.19
2023-03-05T05:03:39.136Z,99828.44
2023-03-05T05:06:40.864Z,99855.28
2023-03-05T05:09:42.573Z,99862.22
2023-03-05T05:12:44.423Z,99857.03
2023-03-05T05:15:46.118Z,99825.84
2023-03-05T05:18:47.918Z,99858.72
2023-03-05T05:21:49.671Z,99867.44
2023-03-05T05:24:51.572Z,99870.88
2023-03-05T05:27:53.291Z,99882.13
2023-03-05T05:30:55.354Z,99882.13
2023-03-05T05:33:57.202Z,99882.13
2023-03-05T05:36:59.018Z,99873.47
2023-03-05T05:40:00.825Z,99888.19
2023-03-05T05:43:03.138Z,99884.72
2023-03-05T05:46:08.264Z,99870.88
2023-03-05T05:49:10.264Z,99889.06
2023-03-05T05:52:12.141Z,99846.63
2023-03-05T05:55:14.000Z,99857.88
2023-03-05T05:58:15.810Z,99895.97
2023-03-05T06:01:28.304Z,99859.63
2023-03-05T06:04:30.216Z,99869.13
2023-03-05T06:07:32.021Z,99902.03
2023-03-05T06:10:34.291Z,99841.44
2023-03-05T06:13:36.357Z,99906.38
2023-03-05T06:16:38.628Z,99893.38
2023-03-05T06:19:40.387Z,99896.84
2023-03-05T06:22:42.183Z,99895.09
2023-03-05T06:25:44.053Z,99863.06
2023-03-05T06:28:46.125Z,99905.50
2023-03-05T06:31:48.004Z,99912.44
2023-03-05T06:34:50.296Z,99901.13
2023-03-05T06:37:52.039Z,99905.41
2023-03-05T06:40:53.989Z,99905.41
2023-03-05T06:43:56.698Z,99912.34
2023-03-05T06:46:58.504Z,99900.19
2023-03-05T06:50:00.289Z,99904.53
2023-03-05T06:53:02.505Z,99908.81
2023-03-05T06:56:04.632Z,99877.69
2023-03-05T06:59:07.182Z,99914.03
2023-03-05T07:02:11.509Z,99916.59
2023-03-05T07:05:13.597Z,99916.53
2023-03-05T07:08:15.610Z,99900.09
2023-03-05T07:11:20.647Z,99911.34
2023-03-05T07:14:22.980Z,99922.56
2023-03-05T07:17:24.774Z,99900.88
2023-03-05T07:20:26.526Z,99919.06
2023-03-05T07:23:28.807Z,99914.72
2023-03-05T07:26:31.089Z,99925.13
2023-03-05T07:29:32.912Z,99915.56
2023-03-05T07:32:35.651Z,99908.66
2023-03-05T07:35:41.438Z,99925.97
2023-03-05T07:38:43.451Z,99906.97
2023-03-05T07:41:46.578Z,99884.47
2023-03-05T07:44:49.916Z,99913.88
2023-03-05T07:47:52.644Z,99924.28
2023-03-05T07:51:05.176Z,99906.06
2023-03-05T07:54:07.480Z,99906.00
2023-03-05T07:57:12.579Z,99902.50
2023-03-05T08:00:14.821Z,99855.66
2023-03-05T08:03:17.394Z,99882.50
2023-03-05T08:06:19.199Z,99889.31
2023-03-05T08:09:21.008Z,99864.25
2023-03-05T08:12:23.388Z,99871.06
2023-03-05T08:15:25.143Z,99846.84
2023-03-05T08:18:26.920Z,99892.69
2023-03-05T08:21:34.053Z,99887.47
2023-03-05T08:24:35.780Z,99892.66
2023-03-05T08:27:45.700Z,99894.31
2023-03-05T08:30:48.708Z,99893.41
2023-03-05T08:33:52.962Z,99873.47
2023-03-05T08:36:54.822Z,99885.53
2023-03-05T08:39:57.330Z,99850.97
2023-03-05T08:43:00.103Z,99866.53
2023-03-05T08:46:02.185Z,99888.16
2023-03-05T08:49:04.148Z,99895.91
2023-03-05T08:52:06.065Z,99852.69
2023-03-05T08:55:08.346Z,99882.09
2023-03-05T08:58:10.383Z,99899.38
2023-03-05T09:01:13.226Z,99862.16
2023-03-05T09:04:15.835Z,99883.72
2023-03-05T09:07:17.683Z,99905.38
2023-03-05T09:10:19.798Z,99901.97
2023-03-05T09:13:24.627Z,99907.19
2023-03-05T09:16:30.766Z,99908.94
2023-03-05T09:19:32.516Z,99877.81
2023-03-05T09:22:34.505Z,99897.56
2023-03-05T09:25:36.306Z,99894.91
2023-03-05T09:28:38.877Z,99894.84
2023-03-05T09:31:40.722Z,99899.94
2023-03-05T09:34:42.555Z,99885.19
2023-03-05T09:37:44.249Z,99883.44
2023-03-05T09:40:59.381Z,99891.25
2023-03-05T09:44:23.692Z,99890.41
2023-03-05T09:47:28.474Z,99888.59
2023-03-05T09:50:44.857Z,99895.44
2023-03-05T09:53:52.767Z,99852.13
2023-03-05T09:56:58.305Z,99888.28
2023-03-05T10:00:08.075Z,99878.59
2023-03-05T10:03:15.899Z,99881.06
2023-03-05T10:06:22.903Z,99870.41
2023-03-05T10:09:44.052Z,99866.72
2023-03-05T10:12:51.070Z,99866.56
2023-03-05T10:16:20.865Z,99868.19
2023-03-05T10:19:49.513Z,99863.66
2023-03-05T10:23:12.589Z,99856.47
2023-03-05T10:26:21.688Z,99856.41
2023-03-05T10:29:56.156Z,99858.09
2023-03-05T10:33:25.971Z,99854.41
2023-03-05T10:36:27.810Z,99851.75
2023-03-05T10:39:38.442Z,99846.31
2023-03-05T10:42:44.574Z,99843.56
2023-03-05T10:45:49.902Z,99839.06
2023-03-05T10:49:05.787Z,99837.13
2023-03-05T10:52:36.864Z,99840.41
2023-03-05T10:55:38.603Z,99804.84
2023-03-05T10:58:42.517Z,99833.41
2023-03-05T11:02:04.981Z,99803.88
2023-03-05T11:05:35.332Z,99823.44
2023-03-05T11:08:37.384Z,99798.16
2023-03-05T11:11:39.180Z,99817.00
2023-03-05T11:14:47.702Z,99777.19
2023-03-05T11:18:16.760Z,99778.75
2023-03-05T11:21:20.095Z,99793.19
2023-03-05T11:24:21.904Z,99794.25
2023-03-05T11:27:35.622Z,99789.13
2023-03-05T11:30:40.142Z,99788.34
2023-03-05T11:33:54.630Z,99775.28
2023-03-05T11:36:57.101Z,99771.59
2023-03-05T11:40:08.399Z,99776.81
2023-03-05T11:43:17.537Z,99768.94
2023-03-05T11:46:21.821Z,99739.78
2023-03-05T11:49:27.425Z,99756.44
2023-03-05T11:52:34.170Z,99745.84
2023-03-05T11:55:49.649Z,99743.44
2023-03-05T11:59:05.676Z,99735.47
2023-03-05T12:02:19.633Z,99723.31
2023-03-05T12:05:21.713Z,99736.28
2023-03-05T12:08:33.497Z,99704.59
2023-03-05T12:11:36.772Z,99722.03
2023-03-05T12:14:50.260Z,99706.97
2023-03-05T12:18:04.135Z,99718.31
2023-03-05T12:21:44.639Z,99715.88
2023-03-05T12:24:46.710Z,99720.41
2023-03-05T12:27:48.502Z,99711.03
2023-03-05T12:30:50.213Z,99713.34
2023-03-05T12:33:51.962Z,99705.88
2023-03-05T12:36:53.815Z,99658.25
2023-03-05T12:40:01.093Z,99680.91
2023-03-05T12:43:03.443Z,99700.56
2023-03-05T12:46:26.393Z,99694.41
2023-03-05T12:49:29.333Z,99690.28
2023-03-05T12:52:33.969Z,99689.09
2023-03-05T12:55:56.904Z,99702.84
2023-03-05T12:59:01.701Z,99670.16
2023-03-05T13:02:16.687Z,99651.34
2023-03-05T13:05:32.944Z,99679.78
2023-03-05T13:08:37.313Z,99669.00
2023-03-05T13:11:39.561Z,99639.78
2023-03-05T13:14:44.114Z,99674.28
2023-03-05T13:17:59.173Z,99668.94
2023-03-05T13:21:13.916Z,99663.13
2023-03-05T13:24:20.205Z,99649.56
2023-03-05T13:27:30.396Z,99659.88
2023-03-05T13:30:34.580Z,99657.41
2023-03-05T13:33:37.399Z,99633.16
2023-03-05T13:36:40.349Z,99660.59
2023-03-05T13:39:56.904Z,99643.06
2023-03-05T13:43:20.844Z,99643.88
2023-03-05T13:46:35.128Z,99636.06
2023-03-05T13:49:37.077Z,99638.56
2023-03-05T13:52:39.146Z,99633.59
2023-03-05T13:55:41.385Z,99634.34
2023-03-05T13:58:53.452Z,99623.09
2023-03-05T14:02:00.444Z,99617.94
2023-03-05T14:05:02.402Z,99620.59
2023-03-05T14:08:04.522Z,99624.31
2023-03-05T14:11:17.618Z,99609.00
2023-03-05T14:14:20.578Z,99624.56
2023-03-05T14:17:27.871Z,99617.03
2023-03-05T14:20:31.746Z,99619.88
2023-03-05T14:23:36.312Z,99610.34
2023-03-05T14:26:46.758Z,99610.34
2023-03-05T14:29:48.551Z,99603.47
2023-03-05T14:32:53.129Z,99606.09
2023-03-05T14:35:56.009Z,99594.03
2023-03-05T14:38:58.376Z,99558.75
2023-03-05T14:42:26.058Z,99591.38
2023-03-05T14:45:39.061Z,99560.44
2023-03-05T14:48:40.970Z,99594.00
2023-03-05T14:51:45.564Z,99590.50
2023-03-05T14:54:48.456Z,99593.22
2023-03-05T14:57:51.751Z,99582.09
2023-03-05T15:00:55.301Z,99558.03
2023-03-05T15:03:57.196Z,99571.81
2023-03-05T15:06:58.914Z,99590.94
2023-03-05T15:10:00.709Z,99586.75
2023-03-05T15:13:02.624Z,99579.13
2023-03-05T15:16:06.292Z,99589.66
2023-03-05T15:19:12.132Z,99589.84
2023-03-05T15:22:15.342Z,99570.28
2023-03-05T15:25:19.958Z,99592.91
2023-03-05T15:28:21.744Z,99588.66
2023-03-05T15:31:24.814Z,99591.41
2023-03-05T15:34:31.034Z,99597.63
2023-03-05T15:37:32.866Z,99548.56
2023-03-05T15:40:35.432Z,99595.22
2023-03-05T15:43:37.577Z,99578.03
2023-03-05T15:46:39.638Z,99574.69
2023-03-05T15:49:41.422Z,99597.16
2023-03-05T15:52:43.147Z,99594.56
2023-03-05T15:55:46.180Z,99568.72
2023-03-05T15:58:50.734Z,99580.00
2023-03-05T16:01:52.519Z,99593.84
2023-03-05T16:04:54.423Z,99596.47
2023-03-05T16:07:56.608Z,99603.47
2023-03-05T16:10:58.581Z,99597.59
2023-03-05T16:14:07.287Z,99596.75
2023-03-05T16:17:09.825Z,99599.34
2023-03-05T16:20:12.608Z,99588.19
2023-03-05T16:23:14.402Z,99576.19
2023-03-05T16:26:16.416Z,99609.91
2023-03-05T16:29:18.393Z,99603.00
2023-03-05T16:32:20.720Z,99599.59
2023-03-05T16:35:22.761Z,99611.75
2023-03-05T16:38:24.503Z,99611.81
2023-03-05T16:41:26.821Z,99612.75
2023-03-05T16:44:28.657Z,99614.53
2023-03-05T16:47:30.578Z,99610.25
2023-03-05T16:50:32.316Z,99597.34
2023-03-05T16:53:34.245Z,99608.59
2023-03-05T16:56:36.189Z,99610.31
2023-03-05T16:59:38.340Z,99589.63
2023-03-05T17:02:40.024Z,99621.56
2023-03-05T17:05:41.893Z,99627.63
2023-03-05T17:08:44.692Z,99647.53
2023-03-05T17:11:46.552Z,99635.41
2023-03-05T17:14:48.381Z,99632.84
2023-03-05T17:17:50.615Z,99642.41
2023-03-05T17:20:53.226Z,99617.31
2023-03-05T17:23:55.165Z,99642.41
2023-03-05T17:26:56.884Z,99641.47
2023-03-05T17:29:58.730Z,99623.28
2023-03-05T17:33:00.571Z,99601.69
2023-03-05T17:36:03.618Z,99617.28
2023-03-05T17:39:06.071Z,99581.09
2023-03-05T17:42:07.844Z,99610.47
2023-03-05T17:45:10.047Z,99619.19
2023-03-05T17:48:12.941Z,99620.06
2023-03-05T17:51:16.832Z,99621.88
2023-03-05T17:54:18.780Z,99589.84
2023-03-05T17:57:23.565Z,99616.69
2023-03-05T18:00:29.074Z,99608.84
2023-03-05T18:03:31.355Z,99610.53
2023-03-05T18:06:33.666Z,99605.38
2023-03-05T18:09:35.724Z,99607.06
2023-03-05T18:12:37.765Z,99614.88
2023-03-05T18:15:47.413Z,99614.88
2023-03-05T18:18:49.450Z,99621.03
2023-03-05T18:21:51.956Z,99619.31
2023-03-05T18:24:58.108Z,99619.38
2023-03-05T18:28:11.221Z,99634.94
2023-03-05T18:31:13.317Z,99628.91
2023-03-05T18:34:15.234Z,99625.47
2023-03-05T18:37:17.118Z,99641.03
2023-03-05T18:40:22.449Z,99637.53
2023-03-05T18:43:24.754Z,99629.69
2023-03-05T18:46:26.861Z,99631.34
2023-03-05T18:49:29.700Z,99597.66
2023-03-05T18:52:37.601Z,99625.25
2023-03-05T18:55:42.844Z,99597.59
2023-03-05T18:58:45.517Z,99616.53
2023-03-05T19:01:47.496Z,99619.19
2023-03-05T19:04:49.413Z,99619.19
2023-03-05T19:07:51.255Z,99587.25
2023-03-05T19:10:53.391Z,99605.44
2023-03-05T19:13:57.092Z,99618.38
2023-03-05T19:16:59.005Z,99611.47
2023-03-05T19:20:00.789Z,99614.09
2023-03-05T19:23:02.771Z,99604.63
2023-03-05T19:26:10.085Z,99611.50
2023-03-05T19:29:12.498Z,99621.03
2023-03-05T19:32:17.563Z,99618.41
2023-03-05T19:35:19.825Z,99627.03
2023-03-05T19:38:21.775Z,99588.16
2023-03-05T19:41:23.798Z,99610.59
2023-03-05T19:44:26.442Z,99615.81
2023-03-05T19:47:28.443Z,99608.91
2023-03-05T19:50:32.851Z,99613.22
2023-03-05T19:53:35.297Z,99598.47
2023-03-05T19:56:38.667Z,99601.06
2023-03-05T19:59:40.739Z,99588.16
2023-03-05T20:02:42.509Z,99579.50
2023-03-05T20:05:44.565Z,99590.69
2023-03-05T20:08:46.999Z,99606.25
2023-03-05T20:11:49.389Z,99588.97
2023-03-05T20:14:51.247Z,99605.41
2023-03-05T20:17:53.188Z,99603.66
2023-03-05T20:20:58.840Z,99555.28
2023-03-05T20:24:04.773Z,99596.69
2023-03-05T20:27:07.254Z,99591.47
2023-03-05T20:30:12.496Z,99588.91
2023-03-05T20:33:19.809Z,99548.31
2023-03-05T20:36:22.339Z,99589.75
2023-03-05T20:39:24.435Z,99583.69
2023-03-05T20:42:26.260Z,99589.78
2023-03-05T20:45:28.237Z,99579.44
2023-03-05T20:48:33.738Z,99576.84
2023-03-05T20:51:38.058Z,99580.25
2023-03-05T20:54:39.919Z,99581.16
2023-03-05T20:57:44.128Z,99573.41
2023-03-05T21:00:46.147Z,99576.84
2023-03-05T21:03:48.044Z,99583.75
2023-03-05T21:06:54.282Z,99582.84
2023-03-05T21:09:55.979Z,99555.22
2023-03-05T21:13:00.369Z,99581.09
2023-03-05T21:16:09.997Z,99579.44
2023-03-05T21:19:11.913Z,99577.66
2023-03-05T21:22:13.629Z,99574.22
2023-03-05T21:25:24.831Z,99567.34
2023-03-05T21:28:26.730Z,99570.78
2023-03-05T21:31:28.571Z,99565.59
2023-03-05T21:34:30.381Z,99541.38
2023-03-05T21:37:32.231Z,99538.81
2023-03-05T21:40:36.384Z,99562.94
2023-03-05T21:43:38.307Z,99554.28
2023-03-05T21:46:40.282Z,99561.19
2023-03-05T21:49:42.134Z,99544.78
2023-03-05T21:52:43.878Z,99561.22
2023-03-05T21:56:21.084Z,99556.94
2023-03-05T21:59:22.949Z,99559.50
2023-03-05T22:02:25.756Z,99569.88
2023-03-05T22:05:27.480Z,99555.16
2023-03-05T22:08:30.110Z,99559.47
2023-03-05T22:11:31.957Z,99562.03
2023-03-05T22:14:33.728Z,99554.22
2023-03-05T22:17:35.665Z,99524.06
2023-03-05T22:20:37.438Z,99559.44
2023-03-05T22:23:39.105Z,99555.16
2023-03-05T22:26:41.744Z,99523.22
2023-03-05T22:29:43.559Z,99538.75
2023-03-05T22:32:46.448Z,99518.88
2023-03-05T22:35:48.253Z,99557.75
2023-03-05T22:38:50.282Z,99557.81
2023-03-05T22:41:52.088Z,99545.69
2023-03-05T22:44:57.915Z,99557.78
2023-03-05T22:47:59.957Z,99558.63
2023-03-05T22:51:01.698Z,99530.19
2023-03-05T22:54:03.559Z,99557.00
2023-03-05T22:57:05.628Z,99560.44
2023-03-05T23:00:13.529Z,99550.94
2023-03-05T23:03:15.885Z,99557.84
2023-03-05T23:06:17.605Z,99545.75
2023-03-05T23:09:19.428Z,99550.94
2023-03-05T23:12:21.756Z,99548.34
2023-03-05T23:15:29.627Z,99518.13
2023-03-05T23:18:31.589Z,99540.56
2023-03-05T23:21:33.248Z,99548.34
2023-03-05T23:24:35.264Z,99549.19
2023-03-05T23:27:36.995Z,99550.09
2023-03-05T23:30:39.561Z,99535.44
2023-03-05T23:33:41.348Z,99534.63
2023-03-05T23:36:43.000Z,99546.75
2023-03-05T23:39:44.912Z,99563.19
2023-03-05T23:42:46.742Z,99525.25
2023-03-05T23:45:49.335Z,99548.59
2023-03-05T23:48:51.107Z,99569.31
2023-03-05T23:51:53.440Z,99560.66
2023-03-05T23:54:55.464Z,99569.28
2023-03-05T23:57:57.168Z,99560.66
